81  °F
Temperature
70  °F
  Dewpoint
70  %
   Humidity
Temp | Dewpoint | Humidity
Wind Speed
 mph
Wind Speed
 kts
Wind Speed
Calm
Due North

Wind Speed
Mostly Cloudy
Conditions
Pressure 1017.92 (hPa) - 30.06 (in)
Visibility 10.0 (mi) - 16.1 (km)

Current Conditions
KDZJ
Location 6km (3.2mi)
Metar :KDZJ 172215Z AUTO 00000KT 10SM BKN080 BKN110 27/21 A3006 RMK AO2 LTG DSNT E AND NW T02720205
Mon 17th June 18:15 pm

Airport
https://www.checkwx.com/
  Metar Aviation API Data Provided by https://www.checkwx.com/ CSS/SVG/PHP scripts by weather34.com © 2015-2019